createdAt,value
2023-04-07T00:02:11.467Z,0.73
2023-04-07T00:07:12.978Z,0.88
2023-04-07T00:12:14.450Z,0.85
2023-04-07T00:17:15.943Z,0.70
2023-04-07T00:22:18.176Z,0.88
2023-04-07T00:27:19.621Z,0.70
2023-04-07T00:32:21.575Z,0.73
2023-04-07T00:37:23.122Z,1.10
2023-04-07T00:42:24.988Z,0.73
2023-04-07T00:47:26.602Z,1.00
2023-04-07T00:52:30.219Z,0.90
2023-04-07T00:57:31.818Z,0.80
2023-04-07T01:02:56.789Z,1.20
2023-04-07T01:07:58.391Z,0.70
2023-04-07T01:13:09.044Z,0.98
2023-04-07T01:18:15.515Z,1.00
2023-04-07T01:23:33.979Z,1.05
2023-04-07T01:28:38.417Z,1.00
2023-04-07T01:33:41.178Z,1.27
2023-04-07T01:38:43.548Z,1.23
2023-04-07T01:43:51.334Z,1.73
2023-04-07T01:48:53.325Z,1.50
2023-04-07T01:53:55.273Z,1.38
2023-04-07T01:58:56.896Z,1.45
2023-04-07T02:04:01.553Z,1.10
2023-04-07T02:09:06.844Z,1.20
2023-04-07T02:14:09.273Z,0.82
2023-04-07T02:19:11.104Z,1.00
2023-04-07T02:24:12.761Z,1.15
2023-04-07T02:29:14.377Z,0.73
2023-04-07T02:34:15.999Z,1.00
2023-04-07T02:39:17.549Z,1.13
2023-04-07T02:44:19.384Z,1.02
2023-04-07T02:49:20.925Z,0.75
2023-04-07T02:54:22.371Z,0.80
2023-04-07T02:59:23.975Z,1.05
2023-04-07T03:04:25.755Z,1.17
2023-04-07T03:09:27.451Z,0.93
2023-04-07T03:14:28.957Z,0.80
2023-04-07T03:19:30.592Z,0.98
2023-04-07T03:24:32.047Z,1.27
2023-04-07T03:29:33.524Z,1.17
2023-04-07T03:34:35.082Z,1.15
2023-04-07T03:39:37.548Z,0.98
2023-04-07T03:44:39.298Z,1.20
2023-04-07T03:49:41.013Z,1.13
2023-04-07T03:54:42.581Z,1.20
2023-04-07T03:59:44.048Z,1.17
2023-04-07T04:04:45.738Z,1.25
2023-04-07T04:09:47.302Z,1.63
2023-04-07T04:14:48.761Z,1.27
2023-04-07T04:19:51.275Z,1.80
2023-04-07T04:24:52.727Z,1.67
2023-04-07T04:29:54.211Z,1.73
2023-04-07T04:34:55.675Z,1.88
2023-04-07T04:39:57.126Z,1.65
2023-04-07T04:44:58.767Z,1.98
2023-04-07T04:50:00.540Z,1.85
2023-04-07T04:55:02.259Z,2.60
2023-04-07T05:00:04.537Z,2.10
2023-04-07T05:05:06.432Z,2.03
2023-04-07T05:10:08.272Z,2.25
2023-04-07T05:15:09.991Z,1.85
2023-04-07T05:20:11.691Z,1.95
2023-04-07T05:25:13.163Z,2.03
2023-04-07T05:30:14.991Z,1.55
2023-04-07T05:35:16.562Z,1.92
2023-04-07T05:40:18.296Z,2.45
2023-04-07T05:45:20.170Z,1.92
2023-04-07T05:50:21.884Z,1.60
2023-04-07T05:55:23.511Z,1.55
2023-04-07T06:00:25.055Z,1.65
2023-04-07T06:05:26.662Z,1.80
2023-04-07T06:10:28.234Z,1.88
2023-04-07T06:15:29.696Z,2.05
2023-04-07T06:20:31.275Z,1.67
2023-04-07T06:25:32.758Z,1.90
2023-04-07T06:30:34.680Z,1.92
2023-04-07T06:35:36.185Z,2.13
2023-04-07T06:40:37.690Z,2.20
2023-04-07T06:45:39.284Z,2.47
2023-04-07T06:50:40.829Z,2.47
2023-04-07T06:55:42.325Z,2.10
2023-04-07T07:00:43.832Z,1.77
2023-04-07T07:05:45.527Z,2.03
2023-04-07T07:10:47.010Z,1.92
2023-04-07T07:15:48.563Z,2.03
2023-04-07T07:20:51.121Z,1.73
2023-04-07T07:25:52.631Z,1.50
2023-04-07T07:30:54.141Z,1.20
2023-04-07T07:35:55.641Z,0.82
2023-04-07T07:40:57.175Z,1.00
2023-04-07T07:45:58.776Z,0.57
2023-04-07T07:51:00.572Z,0.70
2023-04-07T07:56:02.099Z,0.60
2023-04-07T08:01:03.574Z,0.50
2023-04-07T08:06:05.684Z,0.45
2023-04-07T08:11:07.222Z,0.47
2023-04-07T08:16:08.859Z,0.57
2023-04-07T08:21:10.476Z,0.45
2023-04-07T08:26:12.109Z,0.90
2023-04-07T08:31:13.789Z,0.50
2023-04-07T08:36:15.370Z,0.38
2023-04-07T08:41:40.151Z,0.77
2023-04-07T08:46:41.954Z,0.85
2023-04-07T08:51:49.644Z,0.68
2023-04-07T08:56:51.634Z,0.98
2023-04-07T09:01:53.700Z,0.73
2023-04-07T09:06:55.467Z,0.55
2023-04-07T09:11:56.975Z,0.47
2023-04-07T09:17:00.326Z,0.40
2023-04-07T09:22:01.910Z,0.38
2023-04-07T09:27:16.558Z,0.40
2023-04-07T09:32:36.671Z,0.70
2023-04-07T09:37:38.200Z,0.40
2023-04-07T09:42:46.477Z,0.60
2023-04-07T09:47:48.184Z,0.57
2023-04-07T09:52:52.524Z,0.40
2023-04-07T09:57:55.634Z,0.40
2023-04-07T10:02:58.144Z,0.50
2023-04-07T10:08:01.186Z,0.60
2023-04-07T10:13:04.839Z,0.50
2023-04-07T10:18:07.507Z,0.45
2023-04-07T10:23:20.903Z,0.68
2023-04-07T10:28:25.079Z,0.85
2023-04-07T10:33:49.439Z,1.10
2023-04-07T10:39:09.387Z,0.40
2023-04-07T10:44:32.505Z,0.50
2023-04-07T10:49:34.888Z,0.45
2023-04-07T10:54:36.383Z,0.70
2023-04-07T10:59:58.783Z,0.65
2023-04-07T11:05:00.590Z,0.50
2023-04-07T11:10:12.107Z,0.60
2023-04-07T11:15:17.185Z,0.70
2023-04-07T11:20:18.755Z,0.60
2023-04-07T11:25:20.833Z,0.52
2023-04-07T11:30:22.873Z,0.70
2023-04-07T11:35:25.246Z,0.70
2023-04-07T11:40:34.513Z,0.85
2023-04-07T11:45:36.201Z,0.55
2023-04-07T11:50:38.932Z,0.75
2023-04-07T11:55:40.526Z,0.63
2023-04-07T12:00:55.875Z,0.70
2023-04-07T12:05:57.423Z,0.57
2023-04-07T12:11:05.264Z,0.90
2023-04-07T12:16:06.900Z,0.73
2023-04-07T12:21:08.390Z,0.80
2023-04-07T12:26:11.853Z,0.88
2023-04-07T12:31:13.348Z,1.00
2023-04-07T12:36:14.877Z,0.70
2023-04-07T12:41:16.391Z,0.80
2023-04-07T12:46:17.968Z,0.90
2023-04-07T12:51:19.760Z,0.82
2023-04-07T12:56:24.209Z,1.02
2023-04-07T13:01:26.011Z,1.02
2023-04-07T13:06:27.577Z,1.00
2023-04-07T13:11:29.080Z,1.13
2023-04-07T13:16:30.670Z,0.88
2023-04-07T13:26:37.072Z,0.95
2023-04-07T13:31:38.655Z,0.70
2023-04-07T13:36:40.599Z,1.20
2023-04-07T13:41:42.104Z,0.88
2023-04-07T13:46:43.781Z,1.10
2023-04-07T13:51:45.752Z,1.13
2023-04-07T13:56:49.136Z,1.10
2023-04-07T14:01:51.076Z,0.77
2023-04-07T14:06:52.973Z,0.93
2023-04-07T14:11:54.472Z,0.80
2023-04-07T14:16:56.019Z,0.77
2023-04-07T14:21:57.505Z,0.70
2023-04-07T14:26:59.144Z,0.93
2023-04-07T14:32:00.610Z,0.80
2023-04-07T14:37:02.212Z,0.75
2023-04-07T14:42:04.477Z,1.20
2023-04-07T14:47:06.686Z,0.88
2023-04-07T14:52:08.184Z,1.15
2023-04-07T14:57:09.649Z,0.82
2023-04-07T15:02:11.436Z,0.80
2023-04-07T15:07:13.433Z,0.80
2023-04-07T15:12:14.980Z,0.82
2023-04-07T15:17:16.442Z,0.80
2023-04-07T15:22:17.921Z,1.10
2023-04-07T15:27:19.431Z,0.80
2023-04-07T15:32:20.959Z,1.15
2023-04-07T15:37:22.496Z,1.00
2023-04-07T15:42:24.180Z,1.02
2023-04-07T15:47:25.882Z,0.75
2023-04-07T15:52:27.800Z,1.25
2023-04-07T15:57:29.289Z,1.48
2023-04-07T16:02:30.960Z,0.77
2023-04-07T16:07:32.575Z,1.00
2023-04-07T16:12:34.518Z,0.88
2023-04-07T16:17:36.453Z,1.00
2023-04-07T16:22:37.945Z,1.08
2023-04-07T16:27:39.544Z,0.80
2023-04-07T16:32:43.743Z,0.75
2023-04-07T16:37:50.114Z,1.20
2023-04-07T16:42:51.651Z,1.00
2023-04-07T16:47:53.311Z,1.10
2023-04-07T16:52:57.367Z,1.20
2023-04-07T16:58:00.282Z,0.63
2023-04-07T17:03:01.975Z,1.48
2023-04-07T17:08:03.616Z,0.88
2023-04-07T17:13:05.105Z,1.17
2023-04-07T17:18:06.613Z,0.82
2023-04-07T17:23:10.335Z,1.25
2023-04-07T17:28:11.827Z,1.27
2023-04-07T17:33:13.324Z,1.42
2023-04-07T17:38:14.809Z,0.93
2023-04-07T17:43:16.393Z,1.33
2023-04-07T17:48:18.104Z,1.30
2023-04-07T17:53:19.848Z,1.05
2023-04-07T17:58:21.539Z,1.30
2023-04-07T18:03:23.265Z,1.33
2023-04-07T18:08:26.356Z,1.10
2023-04-07T18:13:27.922Z,1.33
2023-04-07T18:18:29.500Z,1.67
2023-04-07T18:23:31.041Z,1.63
2023-04-07T18:28:32.539Z,1.48
2023-04-07T18:33:34.680Z,1.50
2023-04-07T18:38:36.675Z,1.67
2023-04-07T18:43:38.281Z,1.48
2023-04-07T18:48:41.022Z,1.60
2023-04-07T18:53:42.606Z,1.58
2023-04-07T18:58:45.749Z,1.40
2023-04-07T19:03:47.838Z,1.48
2023-04-07T19:08:52.665Z,1.58
2023-04-07T19:13:56.343Z,1.45
2023-04-07T19:18:58.121Z,1.58
2023-04-07T19:23:59.889Z,1.48
2023-04-07T19:29:03.347Z,1.23
2023-04-07T19:34:04.849Z,1.23
2023-04-07T19:39:06.455Z,1.52
2023-04-07T19:44:08.158Z,1.55
2023-04-07T19:49:10.582Z,1.40
2023-04-07T19:54:12.227Z,1.55
2023-04-07T19:59:13.717Z,1.27
2023-04-07T20:04:15.465Z,1.50
2023-04-07T20:09:17.111Z,1.60
2023-04-07T20:14:18.667Z,1.42
2023-04-07T20:19:20.210Z,1.30
2023-04-07T20:24:22.066Z,1.42
2023-04-07T20:29:23.637Z,1.52
2023-04-07T20:34:25.426Z,1.33
2023-04-07T20:39:26.974Z,1.23
2023-04-07T20:44:29.384Z,1.48
2023-04-07T20:49:31.069Z,1.20
2023-04-07T20:54:32.881Z,1.33
2023-04-07T20:59:34.355Z,1.05
2023-04-07T21:04:36.920Z,1.52
2023-04-07T21:09:38.378Z,1.55
2023-04-07T21:14:39.900Z,1.70
2023-04-07T21:19:42.213Z,1.50
2023-04-07T21:24:43.706Z,1.30
2023-04-07T21:29:45.455Z,1.50
2023-04-07T21:34:46.920Z,1.17
2023-04-07T21:39:52.831Z,1.02
2023-04-07T21:44:54.354Z,1.00
2023-04-07T21:49:57.899Z,1.00
2023-04-07T21:54:59.398Z,1.10
2023-04-07T22:00:01.039Z,0.82
2023-04-07T22:05:02.896Z,1.00
2023-04-07T22:10:04.643Z,1.30
2023-04-07T22:15:06.627Z,1.00
2023-04-07T22:20:09.586Z,0.93
2023-04-07T22:25:11.149Z,1.10
2023-04-07T22:30:12.621Z,1.00
2023-04-07T22:35:14.066Z,1.33
2023-04-07T22:40:15.615Z,1.40
2023-04-07T22:45:19.069Z,1.20
2023-04-07T22:50:20.661Z,1.25
2023-04-07T22:55:22.154Z,1.23
2023-04-07T23:00:23.761Z,1.33
2023-04-07T23:05:25.254Z,1.00
2023-04-07T23:10:26.771Z,1.42
2023-04-07T23:15:28.281Z,1.13
2023-04-07T23:20:29.792Z,1.20
2023-04-07T23:25:31.250Z,1.02
2023-04-07T23:30:32.706Z,1.40
2023-04-07T23:35:34.172Z,1.20
2023-04-07T23:40:35.680Z,0.80
2023-04-07T23:45:37.377Z,1.50
2023-04-07T23:50:39.285Z,1.13
2023-04-07T23:55:40.823Z,1.00
